sensor_id;sensor_type;location;lat;lon;timestamp;P1;durP1;ratioP1;P2;durP2;ratioP2
43817;SDS011;29868;47.360;18.984;2024-03-07T00:00:41;18.33;;;12.20;;
43817;SDS011;29868;47.360;18.984;2024-03-07T00:03:07;21.30;;;12.30;;
43817;SDS011;29868;47.360;18.984;2024-03-07T00:05:33;18.98;;;11.93;;
43817;SDS011;29868;47.360;18.984;2024-03-07T00:07:58;19.25;;;11.63;;
43817;SDS011;29868;47.360;18.984;2024-03-07T00:10:24;18.73;;;11.70;;
43817;SDS011;29868;47.360;18.984;2024-03-07T00:12:49;20.50;;;12.15;;
43817;SDS011;29868;47.360;18.984;2024-03-07T00:15:15;20.95;;;12.40;;
43817;SDS011;29868;47.360;18.984;2024-03-07T00:17:41;21.05;;;12.32;;
43817;SDS011;29868;47.360;18.984;2024-03-07T00:20:07;21.70;;;12.77;;
43817;SDS011;29868;47.360;18.984;2024-03-07T00:22:39;21.52;;;12.07;;
43817;SDS011;29868;47.360;18.984;2024-03-07T00:25:06;21.67;;;11.90;;
43817;SDS011;29868;47.360;18.984;2024-03-07T00:27:34;20.00;;;12.80;;
43817;SDS011;29868;47.360;18.984;2024-03-07T00:30:00;19.73;;;12.43;;
43817;SDS011;29868;47.360;18.984;2024-03-07T00:32:26;20.65;;;12.65;;
43817;SDS011;29868;47.360;18.984;2024-03-07T00:34:55;20.90;;;12.18;;
43817;SDS011;29868;47.360;18.984;2024-03-07T00:37:22;19.73;;;12.20;;
43817;SDS011;29868;47.360;18.984;2024-03-07T00:39:48;19.67;;;11.45;;
43817;SDS011;29868;47.360;18.984;2024-03-07T00:42:14;20.80;;;12.98;;
43817;SDS011;29868;47.360;18.984;2024-03-07T00:44:39;18.85;;;11.93;;
43817;SDS011;29868;47.360;18.984;2024-03-07T00:47:05;20.40;;;12.77;;
43817;SDS011;29868;47.360;18.984;2024-03-07T00:49:30;21.60;;;11.85;;
43817;SDS011;29868;47.360;18.984;2024-03-07T00:51:56;20.15;;;12.55;;
43817;SDS011;29868;47.360;18.984;2024-03-07T00:54:23;21.25;;;12.25;;
43817;SDS011;29868;47.360;18.984;2024-03-07T00:56:48;21.48;;;13.15;;
43817;SDS011;29868;47.360;18.984;2024-03-07T00:59:17;20.05;;;12.52;;
43817;SDS011;29868;47.360;18.984;2024-03-07T01:01:42;20.58;;;12.90;;
43817;SDS011;29868;47.360;18.984;2024-03-07T01:04:08;21.08;;;14.05;;
43817;SDS011;29868;47.360;18.984;2024-03-07T01:06:36;22.25;;;13.63;;
43817;SDS011;29868;47.360;18.984;2024-03-07T01:09:02;21.65;;;12.95;;
43817;SDS011;29868;47.360;18.984;2024-03-07T01:11:28;20.27;;;12.88;;
43817;SDS011;29868;47.360;18.984;2024-03-07T01:13:54;23.48;;;14.27;;
43817;SDS011;29868;47.360;18.984;2024-03-07T01:16:20;20.55;;;13.35;;
43817;SDS011;29868;47.360;18.984;2024-03-07T01:18:46;23.13;;;12.98;;
43817;SDS011;29868;47.360;18.984;2024-03-07T01:21:11;20.77;;;12.88;;
43817;SDS011;29868;47.360;18.984;2024-03-07T01:23:36;21.98;;;13.60;;
43817;SDS011;29868;47.360;18.984;2024-03-07T01:26:02;22.88;;;13.65;;
43817;SDS011;29868;47.360;18.984;2024-03-07T01:28:28;21.55;;;14.35;;
43817;SDS011;29868;47.360;18.984;2024-03-07T01:30:57;19.80;;;12.57;;
43817;SDS011;29868;47.360;18.984;2024-03-07T01:33:23;22.75;;;13.98;;
43817;SDS011;29868;47.360;18.984;2024-03-07T01:35:49;20.95;;;12.93;;
43817;SDS011;29868;47.360;18.984;2024-03-07T01:38:15;20.13;;;12.82;;
43817;SDS011;29868;47.360;18.984;2024-03-07T01:40:41;21.52;;;13.63;;
43817;SDS011;29868;47.360;18.984;2024-03-07T01:43:07;20.17;;;12.82;;
43817;SDS011;29868;47.360;18.984;2024-03-07T01:45:33;19.85;;;12.63;;
43817;SDS011;29868;47.360;18.984;2024-03-07T01:48:01;21.20;;;12.77;;
43817;SDS011;29868;47.360;18.984;2024-03-07T01:50:27;22.13;;;13.57;;
43817;SDS011;29868;47.360;18.984;2024-03-07T01:52:53;20.40;;;13.40;;
43817;SDS011;29868;47.360;18.984;2024-03-07T01:55:20;21.23;;;13.02;;
43817;SDS011;29868;47.360;18.984;2024-03-07T01:57:47;24.23;;;13.30;;
43817;SDS011;29868;47.360;18.984;2024-03-07T02:00:13;21.48;;;13.07;;
43817;SDS011;29868;47.360;18.984;2024-03-07T02:02:38;21.92;;;13.00;;
43817;SDS011;29868;47.360;18.984;2024-03-07T02:05:04;19.67;;;12.88;;
43817;SDS011;29868;47.360;18.984;2024-03-07T02:07:31;19.70;;;12.98;;
43817;SDS011;29868;47.360;18.984;2024-03-07T02:10:00;19.80;;;12.70;;
43817;SDS011;29868;47.360;18.984;2024-03-07T02:12:27;20.40;;;12.57;;
43817;SDS011;29868;47.360;18.984;2024-03-07T02:14:54;20.05;;;12.70;;
43817;SDS011;29868;47.360;18.984;2024-03-07T02:17:21;20.23;;;11.27;;
43817;SDS011;29868;47.360;18.984;2024-03-07T02:19:46;17.42;;;11.23;;
43817;SDS011;29868;47.360;18.984;2024-03-07T02:22:12;16.60;;;10.38;;
43817;SDS011;29868;47.360;18.984;2024-03-07T02:24:38;14.27;;;9.27;;
43817;SDS011;29868;47.360;18.984;2024-03-07T02:27:03;15.63;;;9.05;;
43817;SDS011;29868;47.360;18.984;2024-03-07T02:29:29;11.77;;;7.15;;
43817;SDS011;29868;47.360;18.984;2024-03-07T02:31:55;12.13;;;7.00;;
43817;SDS011;29868;47.360;18.984;2024-03-07T02:34:21;10.32;;;6.38;;
43817;SDS011;29868;47.360;18.984;2024-03-07T02:36:47;9.38;;;5.72;;
43817;SDS011;29868;47.360;18.984;2024-03-07T02:39:12;10.98;;;6.05;;
43817;SDS011;29868;47.360;18.984;2024-03-07T02:41:38;10.52;;;5.85;;
43817;SDS011;29868;47.360;18.984;2024-03-07T02:44:03;10.27;;;5.97;;
43817;SDS011;29868;47.360;18.984;2024-03-07T02:46:29;10.07;;;5.82;;
43817;SDS011;29868;47.360;18.984;2024-03-07T02:48:54;9.73;;;6.07;;
43817;SDS011;29868;47.360;18.984;2024-03-07T02:51:20;8.98;;;5.93;;
43817;SDS011;29868;47.360;18.984;2024-03-07T02:53:45;10.45;;;6.53;;
43817;SDS011;29868;47.360;18.984;2024-03-07T02:56:10;10.45;;;6.20;;
43817;SDS011;29868;47.360;18.984;2024-03-07T02:58:36;9.73;;;6.15;;
43817;SDS011;29868;47.360;18.984;2024-03-07T03:01:02;9.93;;;5.75;;
43817;SDS011;29868;47.360;18.984;2024-03-07T03:03:30;9.00;;;5.95;;
43817;SDS011;29868;47.360;18.984;2024-03-07T03:05:56;10.32;;;6.43;;
43817;SDS011;29868;47.360;18.984;2024-03-07T03:08:23;10.18;;;6.25;;
43817;SDS011;29868;47.360;18.984;2024-03-07T03:10:49;10.10;;;6.30;;
43817;SDS011;29868;47.360;18.984;2024-03-07T03:13:16;11.38;;;6.82;;
43817;SDS011;29868;47.360;18.984;2024-03-07T03:15:42;11.00;;;7.00;;
43817;SDS011;29868;47.360;18.984;2024-03-07T03:18:07;10.82;;;6.88;;
43817;SDS011;29868;47.360;18.984;2024-03-07T03:20:34;10.00;;;6.03;;
43817;SDS011;29868;47.360;18.984;2024-03-07T03:23:03;10.13;;;5.72;;
43817;SDS011;29868;47.360;18.984;2024-03-07T03:25:29;11.52;;;6.97;;
43817;SDS011;29868;47.360;18.984;2024-03-07T03:27:55;9.90;;;6.28;;
43817;SDS011;29868;47.360;18.984;2024-03-07T03:30:20;10.98;;;6.50;;
43817;SDS011;29868;47.360;18.984;2024-03-07T03:32:46;11.20;;;6.45;;
43817;SDS011;29868;47.360;18.984;2024-03-07T03:35:13;10.23;;;6.25;;
43817;SDS011;29868;47.360;18.984;2024-03-07T03:37:39;10.40;;;6.28;;
43817;SDS011;29868;47.360;18.984;2024-03-07T03:40:06;10.32;;;6.13;;
43817;SDS011;29868;47.360;18.984;2024-03-07T03:42:34;10.45;;;6.28;;
43817;SDS011;29868;47.360;18.984;2024-03-07T03:45:01;9.90;;;6.18;;
43817;SDS011;29868;47.360;18.984;2024-03-07T03:47:26;10.68;;;6.07;;
43817;SDS011;29868;47.360;18.984;2024-03-07T03:49:53;9.73;;;6.38;;
43817;SDS011;29868;47.360;18.984;2024-03-07T03:52:18;10.02;;;5.95;;
43817;SDS011;29868;47.360;18.984;2024-03-07T03:54:44;9.35;;;5.75;;
43817;SDS011;29868;47.360;18.984;2024-03-07T03:57:09;8.07;;;4.65;;
43817;SDS011;29868;47.360;18.984;2024-03-07T03:59:34;9.18;;;5.60;;
43817;SDS011;29868;47.360;18.984;2024-03-07T04:02:00;7.78;;;4.97;;
43817;SDS011;29868;47.360;18.984;2024-03-07T04:04:25;7.65;;;4.68;;
43817;SDS011;29868;47.360;18.984;2024-03-07T04:06:51;8.35;;;5.25;;
43817;SDS011;29868;47.360;18.984;2024-03-07T04:09:16;8.13;;;5.22;;
43817;SDS011;29868;47.360;18.984;2024-03-07T04:11:44;8.30;;;4.57;;
43817;SDS011;29868;47.360;18.984;2024-03-07T04:14:10;8.45;;;5.25;;
43817;SDS011;29868;47.360;18.984;2024-03-07T04:16:36;7.15;;;4.68;;
43817;SDS011;29868;47.360;18.984;2024-03-07T04:19:01;7.10;;;4.70;;
43817;SDS011;29868;47.360;18.984;2024-03-07T04:21:26;7.90;;;4.80;;
43817;SDS011;29868;47.360;18.984;2024-03-07T04:23:52;8.38;;;4.47;;
43817;SDS011;29868;47.360;18.984;2024-03-07T04:26:17;7.85;;;4.95;;
43817;SDS011;29868;47.360;18.984;2024-03-07T04:28:42;8.27;;;5.00;;
43817;SDS011;29868;47.360;18.984;2024-03-07T04:31:08;7.78;;;4.63;;
43817;SDS011;29868;47.360;18.984;2024-03-07T04:33:33;8.07;;;4.85;;
43817;SDS011;29868;47.360;18.984;2024-03-07T04:35:59;6.47;;;4.40;;
43817;SDS011;29868;47.360;18.984;2024-03-07T04:38:27;7.28;;;4.57;;
43817;SDS011;29868;47.360;18.984;2024-03-07T04:40:53;6.93;;;4.53;;
43817;SDS011;29868;47.360;18.984;2024-03-07T04:43:18;8.32;;;4.75;;
43817;SDS011;29868;47.360;18.984;2024-03-07T04:45:44;8.65;;;4.95;;
43817;SDS011;29868;47.360;18.984;2024-03-07T04:48:10;7.78;;;4.65;;
43817;SDS011;29868;47.360;18.984;2024-03-07T04:50:35;7.50;;;4.50;;
43817;SDS011;29868;47.360;18.984;2024-03-07T04:53:01;7.25;;;4.90;;
43817;SDS011;29868;47.360;18.984;2024-03-07T04:55:27;7.13;;;4.88;;
43817;SDS011;29868;47.360;18.984;2024-03-07T04:57:52;7.88;;;4.68;;
43817;SDS011;29868;47.360;18.984;2024-03-07T05:00:17;7.10;;;4.60;;
43817;SDS011;29868;47.360;18.984;2024-03-07T05:02:47;7.35;;;4.43;;
43817;SDS011;29868;47.360;18.984;2024-03-07T05:05:15;7.30;;;4.60;;
43817;SDS011;29868;47.360;18.984;2024-03-07T05:07:47;7.97;;;4.80;;
43817;SDS011;29868;47.360;18.984;2024-03-07T05:10:14;7.78;;;4.57;;
43817;SDS011;29868;47.360;18.984;2024-03-07T05:12:40;6.55;;;4.57;;
43817;SDS011;29868;47.360;18.984;2024-03-07T05:15:05;8.30;;;4.72;;
43817;SDS011;29868;47.360;18.984;2024-03-07T05:17:31;9.02;;;5.07;;
43817;SDS011;29868;47.360;18.984;2024-03-07T05:19:59;7.93;;;5.10;;
43817;SDS011;29868;47.360;18.984;2024-03-07T05:22:25;10.40;;;5.00;;
43817;SDS011;29868;47.360;18.984;2024-03-07T05:24:51;8.65;;;5.22;;
43817;SDS011;29868;47.360;18.984;2024-03-07T05:27:16;9.25;;;5.63;;
43817;SDS011;29868;47.360;18.984;2024-03-07T05:29:42;8.70;;;5.10;;
43817;SDS011;29868;47.360;18.984;2024-03-07T05:32:41;12.38;;;5.82;;
43817;SDS011;29868;47.360;18.984;2024-03-07T05:34:59;8.82;;;5.25;;
43817;SDS011;29868;47.360;18.984;2024-03-07T05:37:25;8.00;;;5.03;;
43817;SDS011;29868;47.360;18.984;2024-03-07T05:39:50;9.57;;;5.70;;
43817;SDS011;29868;47.360;18.984;2024-03-07T05:42:17;8.55;;;5.20;;
43817;SDS011;29868;47.360;18.984;2024-03-07T05:44:42;9.05;;;5.65;;
43817;SDS011;29868;47.360;18.984;2024-03-07T05:47:08;8.25;;;5.32;;
43817;SDS011;29868;47.360;18.984;2024-03-07T05:49:34;7.25;;;5.25;;
43817;SDS011;29868;47.360;18.984;2024-03-07T05:52:00;7.97;;;5.03;;
43817;SDS011;29868;47.360;18.984;2024-03-07T05:54:25;9.60;;;5.93;;
43817;SDS011;29868;47.360;18.984;2024-03-07T05:56:50;8.45;;;5.68;;
43817;SDS011;29868;47.360;18.984;2024-03-07T05:59:16;8.85;;;5.10;;
43817;SDS011;29868;47.360;18.984;2024-03-07T06:01:42;11.15;;;6.72;;
43817;SDS011;29868;47.360;18.984;2024-03-07T06:04:07;11.73;;;6.72;;
43817;SDS011;29868;47.360;18.984;2024-03-07T06:06:35;20.75;;;10.75;;
43817;SDS011;29868;47.360;18.984;2024-03-07T06:09:02;14.98;;;9.00;;
43817;SDS011;29868;47.360;18.984;2024-03-07T06:11:41;15.43;;;8.02;;
43817;SDS011;29868;47.360;18.984;2024-03-07T06:14:09;12.68;;;6.97;;
43817;SDS011;29868;47.360;18.984;2024-03-07T06:16:38;10.60;;;6.80;;
43817;SDS011;29868;47.360;18.984;2024-03-07T06:19:05;9.77;;;6.70;;
43817;SDS011;29868;47.360;18.984;2024-03-07T06:21:32;10.50;;;6.55;;
43817;SDS011;29868;47.360;18.984;2024-03-07T06:23:58;11.40;;;6.65;;
43817;SDS011;29868;47.360;18.984;2024-03-07T06:26:33;10.00;;;6.65;;
43817;SDS011;29868;47.360;18.984;2024-03-07T06:29:06;9.50;;;6.03;;
43817;SDS011;29868;47.360;18.984;2024-03-07T06:31:38;9.27;;;6.07;;
43817;SDS011;29868;47.360;18.984;2024-03-07T06:34:05;9.75;;;5.82;;
43817;SDS011;29868;47.360;18.984;2024-03-07T06:36:30;10.57;;;6.70;;
43817;SDS011;29868;47.360;18.984;2024-03-07T06:38:56;9.50;;;6.20;;
43817;SDS011;29868;47.360;18.984;2024-03-07T06:41:21;9.95;;;6.40;;
43817;SDS011;29868;47.360;18.984;2024-03-07T06:43:47;14.20;;;6.47;;
43817;SDS011;29868;47.360;18.984;2024-03-07T06:46:14;9.27;;;5.75;;
43817;SDS011;29868;47.360;18.984;2024-03-07T06:48:41;7.22;;;4.95;;
43817;SDS011;29868;47.360;18.984;2024-03-07T06:51:07;6.95;;;4.75;;
43817;SDS011;29868;47.360;18.984;2024-03-07T06:53:32;8.52;;;5.68;;
43817;SDS011;29868;47.360;18.984;2024-03-07T06:55:58;6.45;;;4.18;;
43817;SDS011;29868;47.360;18.984;2024-03-07T06:58:24;6.82;;;4.38;;
43817;SDS011;29868;47.360;18.984;2024-03-07T07:00:51;8.38;;;4.85;;
43817;SDS011;29868;47.360;18.984;2024-03-07T07:03:19;6.45;;;3.92;;
43817;SDS011;29868;47.360;18.984;2024-03-07T07:05:45;7.60;;;4.70;;
43817;SDS011;29868;47.360;18.984;2024-03-07T07:08:11;7.10;;;4.60;;
43817;SDS011;29868;47.360;18.984;2024-03-07T07:10:38;6.47;;;4.40;;
43817;SDS011;29868;47.360;18.984;2024-03-07T07:13:05;6.20;;;4.47;;
43817;SDS011;29868;47.360;18.984;2024-03-07T07:15:31;7.75;;;4.50;;
43817;SDS011;29868;47.360;18.984;2024-03-07T07:17:57;6.40;;;4.10;;
43817;SDS011;29868;47.360;18.984;2024-03-07T07:20:23;6.07;;;4.00;;
43817;SDS011;29868;47.360;18.984;2024-03-07T07:22:49;5.38;;;3.75;;
43817;SDS011;29868;47.360;18.984;2024-03-07T07:25:15;6.60;;;4.45;;
43817;SDS011;29868;47.360;18.984;2024-03-07T07:30:12;6.70;;;4.32;;
43817;SDS011;29868;47.360;18.984;2024-03-07T07:32:42;7.53;;;5.85;;
43817;SDS011;29868;47.360;18.984;2024-03-07T07:35:08;7.28;;;4.40;;
43817;SDS011;29868;47.360;18.984;2024-03-07T07:37:43;6.30;;;4.32;;
43817;SDS011;29868;47.360;18.984;2024-03-07T07:40:15;6.47;;;4.15;;
43817;SDS011;29868;47.360;18.984;2024-03-07T07:42:46;6.03;;;3.97;;
43817;SDS011;29868;47.360;18.984;2024-03-07T07:45:14;5.50;;;3.67;;
43817;SDS011;29868;47.360;18.984;2024-03-07T07:47:41;6.28;;;4.22;;
43817;SDS011;29868;47.360;18.984;2024-03-07T07:50:19;6.80;;;4.28;;
43817;SDS011;29868;47.360;18.984;2024-03-07T07:52:56;5.53;;;3.75;;
43817;SDS011;29868;47.360;18.984;2024-03-07T07:55:23;6.03;;;4.10;;
43817;SDS011;29868;47.360;18.984;2024-03-07T07:57:50;7.15;;;4.40;;
43817;SDS011;29868;47.360;18.984;2024-03-07T08:00:17;7.40;;;4.35;;
43817;SDS011;29868;47.360;18.984;2024-03-07T08:02:56;6.93;;;4.18;;
43817;SDS011;29868;47.360;18.984;2024-03-07T08:05:31;5.97;;;4.10;;
43817;SDS011;29868;47.360;18.984;2024-03-07T08:08:02;5.90;;;3.78;;
43817;SDS011;29868;47.360;18.984;2024-03-07T08:10:31;8.23;;;4.18;;
43817;SDS011;29868;47.360;18.984;2024-03-07T08:12:57;6.18;;;4.13;;
43817;SDS011;29868;47.360;18.984;2024-03-07T08:15:24;7.32;;;4.30;;
43817;SDS011;29868;47.360;18.984;2024-03-07T08:17:51;7.97;;;3.63;;
43817;SDS011;29868;47.360;18.984;2024-03-07T08:20:18;6.38;;;4.13;;
43817;SDS011;29868;47.360;18.984;2024-03-07T08:22:46;6.32;;;4.25;;
43817;SDS011;29868;47.360;18.984;2024-03-07T08:25:12;8.20;;;4.78;;
43817;SDS011;29868;47.360;18.984;2024-03-07T08:27:39;7.43;;;4.50;;
43817;SDS011;29868;47.360;18.984;2024-03-07T08:30:06;7.35;;;4.38;;
43817;SDS011;29868;47.360;18.984;2024-03-07T08:32:33;7.80;;;4.65;;
43817;SDS011;29868;47.360;18.984;2024-03-07T08:35:02;5.55;;;4.07;;
43817;SDS011;29868;47.360;18.984;2024-03-07T08:37:31;6.45;;;4.32;;
43817;SDS011;29868;47.360;18.984;2024-03-07T08:42:34;7.03;;;4.68;;
43817;SDS011;29868;47.360;18.984;2024-03-07T08:45:01;6.72;;;4.50;;
43817;SDS011;29868;47.360;18.984;2024-03-07T08:47:31;6.75;;;4.70;;
43817;SDS011;29868;47.360;18.984;2024-03-07T08:49:59;6.30;;;4.40;;
43817;SDS011;29868;47.360;18.984;2024-03-07T08:52:26;6.38;;;4.47;;
43817;SDS011;29868;47.360;18.984;2024-03-07T08:54:53;7.60;;;5.03;;
43817;SDS011;29868;47.360;18.984;2024-03-07T08:57:19;7.40;;;4.75;;
43817;SDS011;29868;47.360;18.984;2024-03-07T08:59:45;7.60;;;5.07;;
43817;SDS011;29868;47.360;18.984;2024-03-07T09:02:11;8.10;;;4.82;;
43817;SDS011;29868;47.360;18.984;2024-03-07T09:04:37;7.88;;;4.68;;
43817;SDS011;29868;47.360;18.984;2024-03-07T09:07:03;7.97;;;4.38;;
43817;SDS011;29868;47.360;18.984;2024-03-07T09:09:32;7.32;;;4.80;;
43817;SDS011;29868;47.360;18.984;2024-03-07T09:11:58;6.15;;;4.10;;
43817;SDS011;29868;47.360;18.984;2024-03-07T09:14:26;5.82;;;4.07;;
43817;SDS011;29868;47.360;18.984;2024-03-07T09:16:52;6.18;;;3.95;;
43817;SDS011;29868;47.360;18.984;2024-03-07T09:19:17;8.05;;;4.57;;
43817;SDS011;29868;47.360;18.984;2024-03-07T09:21:47;6.63;;;4.30;;
43817;SDS011;29868;47.360;18.984;2024-03-07T09:24:14;7.13;;;4.43;;
43817;SDS011;29868;47.360;18.984;2024-03-07T09:26:40;6.85;;;4.80;;
43817;SDS011;29868;47.360;18.984;2024-03-07T09:29:05;6.70;;;4.35;;
43817;SDS011;29868;47.360;18.984;2024-03-07T09:31:34;8.27;;;4.88;;
43817;SDS011;29868;47.360;18.984;2024-03-07T09:33:59;8.57;;;5.00;;
43817;SDS011;29868;47.360;18.984;2024-03-07T09:36:25;10.80;;;6.20;;
43817;SDS011;29868;47.360;18.984;2024-03-07T09:38:51;6.53;;;4.82;;
43817;SDS011;29868;47.360;18.984;2024-03-07T09:41:16;6.90;;;4.85;;
43817;SDS011;29868;47.360;18.984;2024-03-07T09:43:43;7.43;;;4.88;;
43817;SDS011;29868;47.360;18.984;2024-03-07T09:46:11;7.25;;;4.80;;
43817;SDS011;29868;47.360;18.984;2024-03-07T09:48:37;6.88;;;4.65;;
43817;SDS011;29868;47.360;18.984;2024-03-07T09:51:04;6.47;;;4.65;;
43817;SDS011;29868;47.360;18.984;2024-03-07T09:53:30;6.90;;;4.82;;
43817;SDS011;29868;47.360;18.984;2024-03-07T09:55:57;7.45;;;4.85;;
43817;SDS011;29868;47.360;18.984;2024-03-07T09:58:23;6.28;;;4.47;;
43817;SDS011;29868;47.360;18.984;2024-03-07T10:00:52;7.45;;;4.97;;
43817;SDS011;29868;47.360;18.984;2024-03-07T10:03:20;7.40;;;5.03;;
43817;SDS011;29868;47.360;18.984;2024-03-07T10:05:48;8.52;;;4.95;;
43817;SDS011;29868;47.360;18.984;2024-03-07T10:08:15;6.22;;;4.40;;
43817;SDS011;29868;47.360;18.984;2024-03-07T10:10:43;6.68;;;4.68;;
43817;SDS011;29868;47.360;18.984;2024-03-07T10:13:12;6.78;;;4.63;;
43817;SDS011;29868;47.360;18.984;2024-03-07T10:15:38;6.78;;;4.63;;
43817;SDS011;29868;47.360;18.984;2024-03-07T10:18:06;7.10;;;4.68;;
43817;SDS011;29868;47.360;18.984;2024-03-07T10:20:33;6.00;;;4.72;;
43817;SDS011;29868;47.360;18.984;2024-03-07T10:22:58;8.27;;;4.82;;
43817;SDS011;29868;47.360;18.984;2024-03-07T10:25:25;8.02;;;4.93;;
43817;SDS011;29868;47.360;18.984;2024-03-07T10:27:52;6.60;;;4.45;;
43817;SDS011;29868;47.360;18.984;2024-03-07T10:30:18;7.40;;;5.28;;
43817;SDS011;29868;47.360;18.984;2024-03-07T10:32:47;7.18;;;4.80;;
43817;SDS011;29868;47.360;18.984;2024-03-07T10:35:20;6.38;;;4.57;;
43817;SDS011;29868;47.360;18.984;2024-03-07T10:37:49;7.82;;;4.68;;
43817;SDS011;29868;47.360;18.984;2024-03-07T10:40:15;7.03;;;5.00;;
43817;SDS011;29868;47.360;18.984;2024-03-07T10:42:46;6.55;;;4.78;;
43817;SDS011;29868;47.360;18.984;2024-03-07T10:45:19;6.88;;;5.00;;
43817;SDS011;29868;47.360;18.984;2024-03-07T10:47:55;6.63;;;4.38;;
43817;SDS011;29868;47.360;18.984;2024-03-07T10:53:40;7.70;;;5.15;;
43817;SDS011;29868;47.360;18.984;2024-03-07T10:59:18;7.32;;;4.53;;
43817;SDS011;29868;47.360;18.984;2024-03-07T11:01:49;5.32;;;4.03;;
43817;SDS011;29868;47.360;18.984;2024-03-07T11:04:22;7.10;;;4.88;;
43817;SDS011;29868;47.360;18.984;2024-03-07T11:06:48;8.77;;;5.40;;
43817;SDS011;29868;47.360;18.984;2024-03-07T11:09:14;7.00;;;5.15;;
43817;SDS011;29868;47.360;18.984;2024-03-07T11:11:47;6.70;;;4.60;;
43817;SDS011;29868;47.360;18.984;2024-03-07T11:14:13;6.72;;;4.85;;
43817;SDS011;29868;47.360;18.984;2024-03-07T11:16:41;7.03;;;4.75;;
43817;SDS011;29868;47.360;18.984;2024-03-07T11:19:20;7.32;;;4.93;;
43817;SDS011;29868;47.360;18.984;2024-03-07T11:21:52;7.30;;;4.97;;
43817;SDS011;29868;47.360;18.984;2024-03-07T11:24:29;6.85;;;4.90;;
43817;SDS011;29868;47.360;18.984;2024-03-07T11:26:57;8.50;;;5.55;;
43817;SDS011;29868;47.360;18.984;2024-03-07T11:29:39;6.78;;;4.47;;
43817;SDS011;29868;47.360;18.984;2024-03-07T11:32:12;7.65;;;5.10;;
43817;SDS011;29868;47.360;18.984;2024-03-07T11:34:38;7.20;;;5.00;;
43817;SDS011;29868;47.360;18.984;2024-03-07T11:37:11;7.75;;;5.43;;
43817;SDS011;29868;47.360;18.984;2024-03-07T11:39:46;9.50;;;6.07;;
43817;SDS011;29868;47.360;18.984;2024-03-07T11:42:31;9.18;;;5.57;;
43817;SDS011;29868;47.360;18.984;2024-03-07T11:44:58;13.13;;;7.32;;
43817;SDS011;29868;47.360;18.984;2024-03-07T11:47:25;9.63;;;6.07;;
43817;SDS011;29868;47.360;18.984;2024-03-07T11:49:55;8.02;;;5.88;;
43817;SDS011;29868;47.360;18.984;2024-03-07T11:52:23;8.32;;;4.93;;
43817;SDS011;29868;47.360;18.984;2024-03-07T11:54:48;9.10;;;6.05;;
43817;SDS011;29868;47.360;18.984;2024-03-07T11:57:20;8.73;;;6.35;;
43817;SDS011;29868;47.360;18.984;2024-03-07T11:59:51;8.82;;;6.43;;
43817;SDS011;29868;47.360;18.984;2024-03-07T12:02:17;10.25;;;6.95;;
43817;SDS011;29868;47.360;18.984;2024-03-07T12:04:46;9.85;;;6.75;;
43817;SDS011;29868;47.360;18.984;2024-03-07T12:07:13;16.63;;;9.27;;
43817;SDS011;29868;47.360;18.984;2024-03-07T12:09:42;9.32;;;6.13;;
43817;SDS011;29868;47.360;18.984;2024-03-07T12:12:10;9.50;;;6.10;;
43817;SDS011;29868;47.360;18.984;2024-03-07T12:14:37;8.05;;;5.40;;
43817;SDS011;29868;47.360;18.984;2024-03-07T12:17:04;23.05;;;11.90;;
43817;SDS011;29868;47.360;18.984;2024-03-07T12:19:33;25.17;;;12.25;;
43817;SDS011;29868;47.360;18.984;2024-03-07T12:21:59;9.73;;;6.00;;
43817;SDS011;29868;47.360;18.984;2024-03-07T12:24:26;9.13;;;5.68;;
43817;SDS011;29868;47.360;18.984;2024-03-07T12:26:51;8.82;;;6.07;;
43817;SDS011;29868;47.360;18.984;2024-03-07T12:29:17;8.88;;;5.70;;
43817;SDS011;29868;47.360;18.984;2024-03-07T12:31:42;8.43;;;6.13;;
43817;SDS011;29868;47.360;18.984;2024-03-07T12:34:08;9.90;;;6.50;;
43817;SDS011;29868;47.360;18.984;2024-03-07T12:36:36;9.73;;;6.32;;
43817;SDS011;29868;47.360;18.984;2024-03-07T12:39:32;10.57;;;6.27;;
43817;SDS011;29868;47.360;18.984;2024-03-07T12:42:11;7.93;;;5.55;;
43817;SDS011;29868;47.360;18.984;2024-03-07T12:44:40;8.68;;;5.55;;
43817;SDS011;29868;47.360;18.984;2024-03-07T12:47:08;9.32;;;6.20;;
43817;SDS011;29868;47.360;18.984;2024-03-07T12:49:35;8.50;;;5.75;;
43817;SDS011;29868;47.360;18.984;2024-03-07T12:52:01;8.10;;;5.78;;
43817;SDS011;29868;47.360;18.984;2024-03-07T12:54:26;8.32;;;5.85;;
43817;SDS011;29868;47.360;18.984;2024-03-07T12:56:52;9.45;;;6.35;;
43817;SDS011;29868;47.360;18.984;2024-03-07T12:59:17;9.40;;;6.28;;
43817;SDS011;29868;47.360;18.984;2024-03-07T13:01:44;8.85;;;5.80;;
43817;SDS011;29868;47.360;18.984;2024-03-07T13:04:12;10.15;;;6.70;;
43817;SDS011;29868;47.360;18.984;2024-03-07T13:06:39;10.82;;;7.28;;
43817;SDS011;29868;47.360;18.984;2024-03-07T13:09:08;10.52;;;6.32;;
43817;SDS011;29868;47.360;18.984;2024-03-07T13:11:37;9.40;;;6.43;;
43817;SDS011;29868;47.360;18.984;2024-03-07T13:14:07;9.00;;;6.38;;
43817;SDS011;29868;47.360;18.984;2024-03-07T13:16:36;9.73;;;6.80;;
43817;SDS011;29868;47.360;18.984;2024-03-07T13:19:01;9.55;;;6.35;;
43817;SDS011;29868;47.360;18.984;2024-03-07T13:21:29;9.43;;;6.55;;
43817;SDS011;29868;47.360;18.984;2024-03-07T13:24:00;10.85;;;6.78;;
43817;SDS011;29868;47.360;18.984;2024-03-07T13:26:26;11.38;;;6.93;;
43817;SDS011;29868;47.360;18.984;2024-03-07T13:28:55;8.45;;;5.95;;
43817;SDS011;29868;47.360;18.984;2024-03-07T13:31:20;9.38;;;6.65;;
43817;SDS011;29868;47.360;18.984;2024-03-07T13:33:46;10.38;;;6.32;;
43817;SDS011;29868;47.360;18.984;2024-03-07T13:36:12;9.20;;;5.90;;
43817;SDS011;29868;47.360;18.984;2024-03-07T13:38:39;9.23;;;5.82;;
43817;SDS011;29868;47.360;18.984;2024-03-07T13:41:05;11.05;;;6.75;;
43817;SDS011;29868;47.360;18.984;2024-03-07T13:43:31;9.93;;;6.28;;
43817;SDS011;29868;47.360;18.984;2024-03-07T13:45:58;11.10;;;6.63;;
43817;SDS011;29868;47.360;18.984;2024-03-07T13:48:24;11.98;;;7.00;;
43817;SDS011;29868;47.360;18.984;2024-03-07T13:50:50;9.32;;;6.72;;
43817;SDS011;29868;47.360;18.984;2024-03-07T13:53:17;11.05;;;7.47;;
43817;SDS011;29868;47.360;18.984;2024-03-07T13:58:35;10.20;;;6.75;;
43817;SDS011;29868;47.360;18.984;2024-03-07T14:16:11;9.93;;;7.22;;
43817;SDS011;29868;47.360;18.984;2024-03-07T14:33:08;11.60;;;7.38;;
43817;SDS011;29868;47.360;18.984;2024-03-07T14:35:35;11.20;;;6.85;;
43817;SDS011;29868;47.360;18.984;2024-03-07T14:38:25;10.30;;;6.85;;
43817;SDS011;29868;47.360;18.984;2024-03-07T14:40:53;10.32;;;6.70;;
43817;SDS011;29868;47.360;18.984;2024-03-07T14:43:19;10.23;;;7.13;;
43817;SDS011;29868;47.360;18.984;2024-03-07T14:45:45;13.00;;;7.05;;
43817;SDS011;29868;47.360;18.984;2024-03-07T14:48:12;10.68;;;7.10;;
43817;SDS011;29868;47.360;18.984;2024-03-07T14:50:41;11.65;;;7.32;;
43817;SDS011;29868;47.360;18.984;2024-03-07T14:53:10;12.07;;;7.18;;
43817;SDS011;29868;47.360;18.984;2024-03-07T14:55:37;9.93;;;6.70;;
43817;SDS011;29868;47.360;18.984;2024-03-07T14:58:05;12.88;;;7.63;;
43817;SDS011;29868;47.360;18.984;2024-03-07T15:00:34;12.15;;;7.63;;
43817;SDS011;29868;47.360;18.984;2024-03-07T15:03:06;13.45;;;7.45;;
43817;SDS011;29868;47.360;18.984;2024-03-07T15:05:34;10.90;;;7.40;;
43817;SDS011;29868;47.360;18.984;2024-03-07T15:08:00;12.02;;;7.45;;
43817;SDS011;29868;47.360;18.984;2024-03-07T15:10:27;12.65;;;7.72;;
43817;SDS011;29868;47.360;18.984;2024-03-07T15:12:56;11.52;;;7.93;;